Time;durP1;ratioP1;P1;durP2;ratioP2;P2;SDS_P1;SDS_P2;PMS_P1;PMS_P2;Temp;Humidity;BMP_temperature;BMP_pressure;BME280_temperature;BME280_humidity;BME280_pressure;Samples;Min_cycle;Max_cycle;Signal;HPM_P1;HPM_P2
2022/11/08 00:01:57;;;;;;;;;;;;;;;17.76;67.16;99271.31;2107308;28;19927;-53
2022/11/08 00:02:57;;;;;;;;;;;;;;;17.75;67.23;99264.31;2104800;27;19919;-54
2022/11/08 00:03:59;;;;;;;;;;;;;;;17.75;67.35;99267.00;2105946;28;19947;-50
2022/11/08 00:14:16;;;;;;;;;;;;;;;17.74;67.17;99265.31;2105771;27;19927;-53
2022/11/08 00:15:18;;;;;;;;;;;;;;;17.73;67.39;99258.28;2098305;28;22223;-46
2022/11/08 00:16:18;;;;;;;;;;;;;;;17.74;67.23;99266.13;2107482;28;19935;-52
2022/11/08 00:17:21;;;;;;;;;;;;;;;17.73;67.24;99260.97;2104695;28;20062;-48
2022/11/08 00:18:21;;;;;;;;;;;;;;;17.75;67.24;99267.00;2107323;28;19935;-53
2022/11/08 00:19:23;;;;;;;;;;;;;;;17.73;67.28;99264.47;2107364;28;19931;-50
2022/11/08 00:20:24;;;;;;;;;;;;;;;17.72;67.70;99264.63;2105058;28;20417;-50
2022/11/08 00:21:26;;;;;;;;;;;;;;;17.74;67.31;99265.31;2104997;28;19924;-50
2022/11/08 00:22:29;;;;;;;;;;;;;;;17.74;67.24;99267.97;2104148;28;19928;-55
2022/11/08 00:23:31;;;;;;;;;;;;;;;17.72;67.45;99268.19;2107201;28;19920;-51
2022/11/08 00:24:33;;;;;;;;;;;;;;;17.73;67.47;99266.31;2106872;28;19920;-51
2022/11/08 00:25:35;;;;;;;;;;;;;;;17.73;67.32;99267.16;2101890;28;19930;-53
2022/11/08 00:26:35;;;;;;;;;;;;;;;17.74;67.21;99267.97;2102554;28;19924;-52
2022/11/08 00:27:37;;;;;;;;;;;;;;;17.73;67.26;99269.00;2102937;28;20828;-52
2022/11/08 00:28:37;;;;;;;;;;;;;;;17.73;67.28;99269.84;2103740;28;19963;-46
2022/11/08 00:29:39;;;;;;;;;;;;;;;17.73;67.41;99269.00;2106969;28;20863;-47
2022/11/08 00:30:39;;;;;;;;;;;;;;;17.72;67.39;99264.63;2106110;28;20092;-47
2022/11/08 00:31:41;;;;;;;;;;;;;;;17.73;67.25;99269.00;2106421;27;19924;-48
2022/11/08 00:32:42;;;;;;;;;;;;;;;17.74;67.22;99265.31;2107568;28;19924;-52
2022/11/08 00:33:43;;;;;;;;;;;;;;;17.72;67.36;99265.50;2107389;28;20005;-51
2022/11/08 00:34:44;;;;;;;;;;;;;;;17.72;67.48;99264.63;2105566;28;19935;-49
2022/11/08 00:35:45;;;;;;;;;;;;;;;17.72;67.19;99262.81;2103063;28;19927;-50
2022/11/08 00:36:47;;;;;;;;;;;;;;;17.72;67.72;99264.63;2106799;28;20639;-54
2022/11/08 00:37:49;;;;;;;;;;;;;;;17.71;67.34;99268.34;2104368;28;19920;-52
2022/11/08 00:38:49;;;;;;;;;;;;;;;17.73;67.32;99269.00;2105951;28;20457;-49
2022/11/08 00:39:51;;;;;;;;;;;;;;;17.73;67.33;99269.00;2103125;28;19923;-46
2022/11/08 00:40:52;;;;;;;;;;;;;;;17.73;67.35;99264.47;2107325;28;19928;-53
2022/11/08 00:41:53;;;;;;;;;;;;;;;17.73;67.24;99266.31;2108401;28;20012;-51
2022/11/08 00:42:54;;;;;;;;;;;;;;;17.72;67.21;99267.31;2107816;28;19939;-49
2022/11/08 00:43:55;;;;;;;;;;;;;;;17.71;67.43;99263.81;2106007;28;20094;-52
2022/11/08 00:44:56;;;;;;;;;;;;;;;17.72;67.51;99272.69;2107989;28;20014;-54
2022/11/08 00:45:57;;;;;;;;;;;;;;;17.72;67.24;99265.50;2109194;28;19943;-52
2022/11/08 00:46:58;;;;;;;;;;;;;;;17.71;67.28;99266.50;2107897;28;19920;-49
2022/11/08 00:47:59;;;;;;;;;;;;;;;17.72;67.25;99270.88;2109082;28;19920;-49
2022/11/08 00:49:00;;;;;;;;;;;;;;;17.72;67.25;99272.69;2108484;28;19969;-52
2022/11/08 00:50:01;;;;;;;;;;;;;;;17.72;67.30;99270.00;2110175;28;20370;-54
2022/11/08 00:51:02;;;;;;;;;;;;;;;17.71;67.39;99268.34;2110949;28;19931;-49
2022/11/08 00:52:05;;;;;;;;;;;;;;;17.71;67.30;99263.81;2106812;28;20006;-52
2022/11/08 00:53:06;;;;;;;;;;;;;;;17.71;67.22;99262.97;2102923;28;19924;-52
2022/11/08 00:54:08;;;;;;;;;;;;;;;17.70;67.38;99255.97;2104308;28;19927;-52
2022/11/08 00:55:09;;;;;;;;;;;;;;;17.71;67.46;99268.34;2104056;28;19923;-54
2022/11/08 00:56:11;;;;;;;;;;;;;;;17.73;67.44;99263.66;2103274;28;19963;-51
2022/11/08 00:57:12;;;;;;;;;;;;;;;17.71;67.45;99268.34;2107292;28;19980;-48
2022/11/08 00:58:13;;;;;;;;;;;;;;;17.71;67.36;99271.03;2105618;28;19927;-50
2022/11/08 00:59:15;;;;;;;;;;;;;;;17.71;67.25;99271.03;2105907;28;19931;-48
2022/11/08 01:00:17;;;;;;;;;;;;;;;17.70;67.47;99274.75;2104577;28;19976;-48
2022/11/08 01:01:18;;;;;;;;;;;;;;;17.71;67.23;99276.41;2106765;28;19926;-52
2022/11/08 01:02:20;;;;;;;;;;;;;;;17.70;67.42;99278.25;2106778;28;20001;-50
2022/11/08 01:03:20;;;;;;;;;;;;;;;17.70;67.26;99277.44;2105995;28;19959;-54
2022/11/08 01:04:22;;;;;;;;;;;;;;;17.70;67.57;99280.94;2106245;28;20297;-51
2022/11/08 01:05:22;;;;;;;;;;;;;;;17.72;67.16;99280.72;2105942;28;19923;-52
2022/11/08 01:06:25;;;;;;;;;;;;;;;17.70;67.14;99272.88;2105744;28;20297;-52
2022/11/08 01:07:27;;;;;;;;;;;;;;;17.70;67.30;99277.44;2104406;28;20452;-54
2022/11/08 01:08:28;;;;;;;;;;;;;;;17.70;67.21;99280.09;2105954;28;21055;-52
2022/11/08 01:09:30;;;;;;;;;;;;;;;17.70;67.39;99283.63;2107968;28;19970;-53
2022/11/08 01:10:30;;;;;;;;;;;;;;;17.70;67.21;99282.78;2106185;27;19923;-47
2022/11/08 01:11:32;;;;;;;;;;;;;;;17.70;67.21;99272.06;2108360;28;20571;-54
2022/11/08 01:12:32;;;;;;;;;;;;;;;17.70;67.22;99280.94;2107940;28;19927;-51
2022/11/08 01:13:35;;;;;;;;;;;;;;;17.70;67.36;99277.44;2108405;28;20276;-53
2022/11/08 01:14:36;;;;;;;;;;;;;;;17.70;67.20;99278.25;2108825;27;19919;-52
2022/11/08 01:15:39;;;;;;;;;;;;;;;17.71;67.31;99276.41;2107403;28;20521;-52
2022/11/08 01:16:40;;;;;;;;;;;;;;;17.70;67.19;99278.25;2105011;28;19923;-51
2022/11/08 01:17:41;;;;;;;;;;;;;;;17.70;67.15;99277.44;2106443;28;20438;-51
2022/11/08 01:18:43;;;;;;;;;;;;;;;17.70;67.39;99278.25;2102326;28;19967;-51
2022/11/08 01:19:44;;;;;;;;;;;;;;;17.69;67.45;99276.59;2106549;28;19942;-51
2022/11/08 01:20:45;;;;;;;;;;;;;;;17.70;67.12;99280.09;2107103;28;19928;-52
2022/11/08 01:21:47;;;;;;;;;;;;;;;17.69;67.15;99281.09;2105322;28;19924;-52
2022/11/08 01:22:49;;;;;;;;;;;;;;;17.69;67.21;99276.59;2102246;28;19949;-54
2022/11/08 01:23:52;;;;;;;;;;;;;;;17.69;67.13;99281.97;2109005;28;19927;-46
2022/11/08 01:24:53;;;;;;;;;;;;;;;17.69;67.37;99281.97;2107642;28;20015;-47
2022/11/08 01:25:54;;;;;;;;;;;;;;;17.69;67.20;99286.47;2106443;28;19942;-48
2022/11/08 01:26:56;;;;;;;;;;;;;;;17.68;67.16;99282.97;2109116;28;19926;-48
2022/11/08 01:27:56;;;;;;;;;;;;;;;17.69;67.07;99281.09;2108365;27;19924;-54
2022/11/08 01:28:58;;;;;;;;;;;;;;;17.70;67.20;99280.94;2106844;28;19923;-52
2022/11/08 01:29:58;;;;;;;;;;;;;;;17.69;67.15;99281.97;2108933;28;19923;-51
2022/11/08 01:31:03;;;;;;;;;;;;;;;17.69;67.13;99279.28;2108454;28;19923;-51
2022/11/08 01:32:05;;;;;;;;;;;;;;;17.69;67.28;99286.47;2107459;28;19953;-53
2022/11/08 01:33:05;;;;;;;;;;;;;;;17.68;67.20;99288.31;2108076;28;21470;-52
2022/11/08 01:34:07;;;;;;;;;;;;;;;17.68;67.41;99282.13;2108203;28;19934;-55
2022/11/08 01:35:08;;;;;;;;;;;;;;;17.68;67.15;99280.28;2105393;27;19926;-47
2022/11/08 01:36:14;;;;;;;;;;;;;;;17.68;67.22;99280.28;2105332;28;20026;-54
2022/11/08 01:37:14;;;;;;;;;;;;;;;17.68;67.33;99280.28;2105473;28;19928;-51
2022/11/08 01:38:17;;;;;;;;;;;;;;;17.69;67.18;99275.75;2108648;28;19924;-49
2022/11/08 01:39:18;;;;;;;;;;;;;;;17.68;67.24;99277.59;2106319;28;20001;-50
2022/11/08 01:40:19;;;;;;;;;;;;;;;17.68;67.19;99274.09;2106604;28;20605;-51
2022/11/08 01:41:21;;;;;;;;;;;;;;;17.68;67.15;99279.44;2105863;28;19919;-54
2022/11/08 01:42:27;;;;;;;;;;;;;;;17.67;67.30;99270.56;2106311;27;19959;-53
2022/11/08 01:43:33;;;;;;;;;;;;;;;17.68;67.04;99280.28;2108588;27;19935;-52
2022/11/08 01:44:49;;;;;;;;;;;;;;;17.67;67.08;99272.44;2106217;28;19946;-50
2022/11/08 01:46:15;;;;;;;;;;;;;;;17.68;67.14;99274.91;2105328;28;19923;-51
2022/11/08 01:47:17;;;;;;;;;;;;;;;17.68;67.30;99274.91;2107711;28;19928;-53
2022/11/08 01:48:17;;;;;;;;;;;;;;;17.66;67.26;99268.88;2108709;27;19919;-49
2022/11/08 01:49:34;;;;;;;;;;;;;;;17.67;67.10;99272.44;2107051;28;19949;-49
2022/11/08 01:50:34;;;;;;;;;;;;;;;17.67;67.34;99275.13;2105661;28;19931;-53
2022/11/08 01:51:39;;;;;;;;;;;;;;;17.68;67.29;99274.09;2102949;28;19955;-49
2022/11/08 01:52:42;;;;;;;;;;;;;;;17.65;67.19;99270.75;2104686;28;19923;-49
2022/11/08 01:53:44;;;;;;;;;;;;;;;17.67;67.09;99272.44;2108424;28;19930;-50
2022/11/08 01:54:50;;;;;;;;;;;;;;;17.66;67.16;99268.88;2104511;28;20038;-48
2022/11/08 01:55:50;;;;;;;;;;;;;;;17.67;67.18;99272.44;2105992;28;20324;-45
2022/11/08 01:56:53;;;;;;;;;;;;;;;17.68;67.33;99274.09;2105387;28;19924;-48
2022/11/08 01:57:56;;;;;;;;;;;;;;;17.67;66.99;99272.44;2106670;28;19924;-46
2022/11/08 01:58:58;;;;;;;;;;;;;;;17.66;67.14;99274.25;2100006;28;19924;-48
2022/11/08 02:00:02;;;;;;;;;;;;;;;17.66;67.05;99260.84;2102281;28;19928;-46
2022/11/08 02:01:03;;;;;;;;;;;;;;;17.69;67.27;99265.00;2107328;28;19928;-49
2022/11/08 02:02:04;;;;;;;;;;;;;;;17.68;67.19;99268.72;2108089;28;21748;-48
2022/11/08 02:03:08;;;;;;;;;;;;;;;17.66;67.23;99266.19;2107764;28;19974;-46
2022/11/08 02:04:10;;;;;;;;;;;;;;;17.67;67.22;99267.88;2107920;28;20845;-46
2022/11/08 02:05:23;;;;;;;;;;;;;;;17.65;67.22;99262.69;2104555;28;19972;-49
2022/11/08 02:06:25;;;;;;;;;;;;;;;17.68;67.15;99266.03;2103072;28;19963;-47
2022/11/08 02:07:27;;;;;;;;;;;;;;;17.66;67.22;99258.16;2108073;28;19953;-48
2022/11/08 02:08:30;;;;;;;;;;;;;;;17.67;67.26;99256.34;2107878;28;19938;-47
2022/11/08 02:09:35;;;;;;;;;;;;;;;17.66;67.34;99255.47;2107044;28;19925;-47
2022/11/08 02:10:37;;;;;;;;;;;;;;;17.67;67.31;99261.69;2107806;28;19927;-50
2022/11/08 02:11:39;;;;;;;;;;;;;;;17.66;67.22;99252.78;2107548;28;19931;-47
2022/11/08 02:12:40;;;;;;;;;;;;;;;17.67;67.37;99256.34;2108455;28;20405;-47
2022/11/08 02:13:41;;;;;;;;;;;;;;;17.67;67.33;99261.69;2107324;28;19934;-47
2022/11/08 02:14:42;;;;;;;;;;;;;;;17.65;67.50;99260.00;2107697;28;19927;-47
2022/11/08 02:15:43;;;;;;;;;;;;;;;17.64;67.47;99254.84;2108206;28;19920;-48
2022/11/08 02:16:45;;;;;;;;;;;;;;;17.65;67.37;99259.19;2107422;27;20608;-47
2022/11/08 02:17:46;;;;;;;;;;;;;;;17.65;67.37;99251.97;2108179;28;19923;-46
2022/11/08 02:18:47;;;;;;;;;;;;;;;17.67;67.18;99256.34;2108207;28;19924;-48
2022/11/08 02:19:50;;;;;;;;;;;;;;;17.64;67.36;99255.66;2101275;28;21256;-48
2022/11/08 02:20:56;;;;;;;;;;;;;;;17.63;67.47;99245.97;2105819;28;19973;-48
2022/11/08 02:22:01;;;;;;;;;;;;;;;17.64;67.45;99250.31;2106477;27;19965;-48
2022/11/08 02:23:04;;;;;;;;;;;;;;;17.64;67.28;99250.31;2107331;28;20003;-49
2022/11/08 02:24:09;;;;;;;;;;;;;;;17.64;67.42;99252.16;2108959;28;19925;-48
2022/11/08 02:25:10;;;;;;;;;;;;;;;17.64;67.27;99247.63;2107325;28;19920;-48
2022/11/08 02:26:12;;;;;;;;;;;;;;;17.64;67.46;99241.44;2108561;28;20857;-46
2022/11/08 02:27:13;;;;;;;;;;;;;;;17.64;67.43;99244.94;2107379;28;19920;-46
2022/11/08 02:28:14;;;;;;;;;;;;;;;17.65;67.30;99251.13;2107876;28;19927;-51
2022/11/08 02:29:22;;;;;;;;;;;;;;;17.64;67.52;99242.25;2105585;28;19919;-45
2022/11/08 02:30:24;;;;;;;;;;;;;;;17.64;67.33;99242.25;2107377;28;20286;-48
2022/11/08 02:31:24;;;;;;;;;;;;;;;17.64;67.33;99247.63;2104652;28;19935;-49
2022/11/08 02:32:26;;;;;;;;;;;;;;;17.63;67.34;99240.59;2108540;27;20289;-46
2022/11/08 02:33:26;;;;;;;;;;;;;;;17.65;67.27;99240.41;2105614;28;19927;-48
2022/11/08 02:34:30;;;;;;;;;;;;;;;17.64;67.21;99236.91;2103432;28;27124;-47
2022/11/08 02:35:31;;;;;;;;;;;;;;;17.64;67.37;99242.25;2107649;28;19919;-49
2022/11/08 02:36:32;;;;;;;;;;;;;;;17.63;67.42;99229.88;2107747;28;19919;-47
2022/11/08 02:37:33;;;;;;;;;;;;;;;17.64;67.26;99242.25;2105918;27;20438;-47
2022/11/08 02:38:36;;;;;;;;;;;;;;;17.63;67.35;99235.25;2107312;27;19933;-48
2022/11/08 02:39:38;;;;;;;;;;;;;;;17.63;67.37;99232.56;2106472;28;19935;-48
2022/11/08 02:40:46;;;;;;;;;;;;;;;17.64;67.39;99236.06;2107283;28;19928;-48
2022/11/08 02:41:47;;;;;;;;;;;;;;;17.63;67.19;99240.59;2103895;28;19923;-48
2022/11/08 02:42:48;;;;;;;;;;;;;;;17.63;67.42;99239.75;2094851;28;19924;-49
2022/11/08 02:43:49;;;;;;;;;;;;;;;17.63;67.38;99235.25;2100419;28;19931;-47
2022/11/08 02:44:50;;;;;;;;;;;;;;;17.64;67.22;99246.78;2104815;28;20300;-49
2022/11/08 02:45:51;;;;;;;;;;;;;;;17.62;67.38;99233.56;2104626;28;19924;-46
2022/11/08 02:46:53;;;;;;;;;;;;;;;17.64;67.26;99230.69;2106069;28;19976;-46
2022/11/08 02:47:53;;;;;;;;;;;;;;;17.62;67.38;99225.50;2107440;28;19931;-49
2022/11/08 02:48:55;;;;;;;;;;;;;;;17.63;67.44;99229.88;2103309;28;19927;-46
2022/11/08 02:49:55;;;;;;;;;;;;;;;17.62;67.38;99227.34;2105703;28;20369;-48
2022/11/08 02:50:57;;;;;;;;;;;;;;;17.62;67.27;99230.88;2105329;28;19930;-49
2022/11/08 02:51:57;;;;;;;;;;;;;;;17.63;67.26;99234.38;2106421;28;19923;-52
2022/11/08 02:52:59;;;;;;;;;;;;;;;17.62;67.35;99228.19;2105624;28;19920;-47
2022/11/08 02:54:00;;;;;;;;;;;;;;;17.63;67.23;99234.38;2106016;28;19940;-49
2022/11/08 02:55:03;;;;;;;;;;;;;;;17.63;67.17;99231.69;2104625;28;20632;-47
2022/11/08 02:56:03;;;;;;;;;;;;;;;17.62;67.20;99227.34;2108223;28;19927;-47
2022/11/08 02:57:05;;;;;;;;;;;;;;;17.63;67.27;99232.56;2106723;28;19930;-46
2022/11/08 02:58:05;;;;;;;;;;;;;;;17.62;67.45;99224.69;2107034;28;19928;-46
2022/11/08 02:59:07;;;;;;;;;;;;;;;17.62;67.43;99230.03;2107725;28;19941;-48
2022/11/08 03:00:08;;;;;;;;;;;;;;;17.61;67.29;99229.22;2105100;28;19924;-48
2022/11/08 03:01:10;;;;;;;;;;;;;;;17.62;67.31;99228.19;2104089;28;19926;-48
2022/11/08 03:02:11;;;;;;;;;;;;;;;17.62;67.33;99225.50;2106964;28;19928;-47
2022/11/08 03:03:12;;;;;;;;;;;;;;;17.61;67.31;99229.22;2104775;28;19939;-46
2022/11/08 03:04:13;;;;;;;;;;;;;;;17.61;67.20;99226.53;2103193;28;19954;-49
2022/11/08 03:05:15;;;;;;;;;;;;;;;17.61;67.45;99231.91;2105643;28;19934;-49
2022/11/08 03:06:15;;;;;;;;;;;;;;;17.60;67.24;99227.53;2108010;28;19935;-47
2022/11/08 03:07:17;;;;;;;;;;;;;;;17.62;67.14;99232.72;2106317;27;20540;-47
2022/11/08 03:08:17;;;;;;;;;;;;;;;17.62;67.34;99224.69;2106208;28;19942;-49
2022/11/08 03:09:19;;;;;;;;;;;;;;;17.62;67.20;99232.72;2103216;28;20293;-48
2022/11/08 03:10:21;;;;;;;;;;;;;;;17.61;67.23;99228.38;2106399;27;19935;-46
2022/11/08 03:11:23;;;;;;;;;;;;;;;17.60;67.32;99229.38;2106707;28;20396;-49
2022/11/08 03:12:23;;;;;;;;;;;;;;;17.60;67.24;99229.38;2106778;28;20270;-46
2022/11/08 03:13:25;;;;;;;;;;;;;;;17.60;67.22;99229.38;2107213;28;19930;-50
2022/11/08 03:14:25;;;;;;;;;;;;;;;17.60;67.13;99229.38;2103666;28;19935;-49
2022/11/08 03:15:27;;;;;;;;;;;;;;;17.59;67.38;99228.56;2106282;28;20034;-49
2022/11/08 03:16:28;;;;;;;;;;;;;;;17.59;67.18;99230.41;2105621;28;19927;-48
2022/11/08 03:17:29;;;;;;;;;;;;;;;17.61;67.21;99225.72;2103959;28;19934;-49
2022/11/08 03:18:30;;;;;;;;;;;;;;;17.61;67.20;99237.25;2102466;28;19930;-46
2022/11/08 03:19:32;;;;;;;;;;;;;;;17.61;67.13;99231.91;2107155;28;19935;-50
2022/11/08 03:20:32;;;;;;;;;;;;;;;17.61;67.21;99234.56;2105569;28;19923;-48
2022/11/08 03:21:34;;;;;;;;;;;;;;;17.61;67.05;99231.06;2104749;27;20522;-48
2022/11/08 03:22:35;;;;;;;;;;;;;;;17.60;67.06;99232.91;2104342;28;19926;-47
2022/11/08 03:23:37;;;;;;;;;;;;;;;17.60;67.16;99235.56;2106905;27;21711;-49
2022/11/08 03:24:38;;;;;;;;;;;;;;;17.59;67.08;99228.56;2102378;28;19924;-46
2022/11/08 03:25:40;;;;;;;;;;;;;;;17.60;67.20;99238.25;2107275;28;19935;-48
2022/11/08 03:26:42;;;;;;;;;;;;;;;17.60;67.11;99235.56;2106654;28;20015;-51
2022/11/08 03:27:42;;;;;;;;;;;;;;;17.60;67.20;99232.06;2106365;28;19935;-48
2022/11/08 03:28:44;;;;;;;;;;;;;;;17.60;67.11;99232.06;2105314;28;21334;-46
2022/11/08 03:29:44;;;;;;;;;;;;;;;17.60;67.16;99237.44;2099772;27;19928;-46
2022/11/08 03:30:46;;;;;;;;;;;;;;;17.59;67.08;99233.91;2097281;28;19928;-46
2022/11/08 03:31:47;;;;;;;;;;;;;;;17.58;67.40;99231.44;2096201;28;19935;-47
2022/11/08 03:32:49;;;;;;;;;;;;;;;17.57;67.24;99227.91;2096454;28;19924;-47
2022/11/08 03:33:50;;;;;;;;;;;;;;;17.58;67.16;99232.25;2094703;28;19927;-49
2022/11/08 03:34:51;;;;;;;;;;;;;;;17.58;67.23;99226.91;2095924;28;19920;-46
2022/11/08 03:35:52;;;;;;;;;;;;;;;17.58;67.37;99226.91;2099955;28;19982;-47
2022/11/08 03:36:53;;;;;;;;;;;;;;;17.58;67.16;99223.38;2104741;27;19926;-47
2022/11/08 03:37:56;;;;;;;;;;;;;;;17.58;67.27;99232.25;2105222;28;19923;-47
2022/11/08 03:38:57;;;;;;;;;;;;;;;17.58;67.18;99224.22;2105821;27;20667;-46
2022/11/08 03:39:58;;;;;;;;;;;;;;;17.58;67.24;99232.25;2107187;27;20404;-47
2022/11/08 03:41:01;;;;;;;;;;;;;;;17.58;67.19;99228.75;2106676;28;19919;-52
2022/11/08 03:42:02;;;;;;;;;;;;;;;17.58;67.41;99231.44;2104409;28;19924;-49
2022/11/08 03:43:03;;;;;;;;;;;;;;;17.58;67.18;99220.72;2106399;28;19920;-48
2022/11/08 03:44:04;;;;;;;;;;;;;;;17.59;67.07;99233.09;2107260;28;20313;-50
2022/11/08 03:45:06;;;;;;;;;;;;;;;17.58;67.34;99228.75;2104918;28;19920;-46
2022/11/08 03:46:07;;;;;;;;;;;;;;;17.58;67.14;99232.25;2105922;28;19924;-46
2022/11/08 03:47:09;;;;;;;;;;;;;;;17.59;67.05;99227.72;2106247;28;20018;-47
2022/11/08 03:48:09;;;;;;;;;;;;;;;17.58;67.29;99232.25;2100818;28;19934;-47
2022/11/08 03:49:11;;;;;;;;;;;;;;;17.58;67.08;99232.25;2104181;28;20300;-49
2022/11/08 03:50:12;;;;;;;;;;;;;;;17.57;67.22;99227.91;2107973;28;20409;-47
2022/11/08 03:51:14;;;;;;;;;;;;;;;17.58;67.34;99226.06;2106836;28;19928;-47
2022/11/08 03:52:14;;;;;;;;;;;;;;;17.57;67.10;99222.53;2105186;28;19919;-47
2022/11/08 03:53:16;;;;;;;;;;;;;;;17.57;67.32;99219.84;2107365;28;19920;-46
2022/11/08 03:54:16;;;;;;;;;;;;;;;17.56;67.36;99226.25;2108316;28;20298;-47
2022/11/08 03:55:19;;;;;;;;;;;;;;;17.57;67.12;99227.91;2106666;28;19920;-46
2022/11/08 03:56:21;;;;;;;;;;;;;;;17.58;67.24;99231.44;2106751;28;19928;-47
2022/11/08 03:57:22;;;;;;;;;;;;;;;17.58;67.23;99226.91;2107353;28;19919;-49
2022/11/08 03:58:23;;;;;;;;;;;;;;;17.58;67.23;99234.94;2105868;28;20572;-48
2022/11/08 03:59:24;;;;;;;;;;;;;;;17.57;67.08;99230.56;2108903;28;20167;-48
2022/11/08 04:00:26;;;;;;;;;;;;;;;17.57;67.27;99229.75;2107642;28;19938;-47
2022/11/08 04:01:27;;;;;;;;;;;;;;;17.57;67.16;99227.91;2106695;28;19930;-47
2022/11/08 04:02:28;;;;;;;;;;;;;;;17.56;67.04;99231.59;2107998;28;19920;-48
2022/11/08 04:03:29;;;;;;;;;;;;;;;17.56;67.18;99225.41;2102723;28;20125;-48
2022/11/08 04:04:30;;;;;;;;;;;;;;;17.56;67.16;99228.91;2102725;28;19923;-47
2022/11/08 04:05:32;;;;;;;;;;;;;;;17.56;67.00;99226.25;2105352;28;19934;-48
2022/11/08 04:06:33;;;;;;;;;;;;;;;17.57;67.12;99227.06;2103934;28;19935;-47
2022/11/08 04:07:34;;;;;;;;;;;;;;;17.58;67.10;99234.13;2103817;28;20010;-47
2022/11/08 04:08:36;;;;;;;;;;;;;;;17.56;67.15;99226.25;2105109;28;19928;-47
2022/11/08 04:09:36;;;;;;;;;;;;;;;17.57;66.96;99224.38;2105555;28;20493;-49
2022/11/08 04:10:38;;;;;;;;;;;;;;;17.56;67.16;99223.56;2105788;27;20034;-48
2022/11/08 04:15:38;;;;;;;;;;;;;;;17.55;67.06;99221.03;2104621;28;20978;-46
2022/11/08 04:16:39;;;;;;;;;;;;;;;17.55;67.29;99224.59;2104831;28;20676;-47
2022/11/08 04:21:38;;;;;;;;;;;;;;;17.55;67.27;99215.69;2106536;28;19931;-49
2022/11/08 04:22:39;;;;;;;;;;;;;;;17.55;67.31;99223.72;2101255;28;20309;-50
2022/11/08 04:23:40;;;;;;;;;;;;;;;17.56;67.16;99225.41;2103643;28;19934;-47
2022/11/08 04:24:41;;;;;;;;;;;;;;;17.56;67.01;99228.91;2104092;28;19934;-48
2022/11/08 04:25:42;;;;;;;;;;;;;;;17.55;67.06;99231.78;2106671;28;20305;-47
2022/11/08 04:26:45;;;;;;;;;;;;;;;17.55;66.87;99226.41;2105550;28;20588;-57
2022/11/08 04:27:46;;;;;;;;;;;;;;;17.54;67.27;99225.59;2106492;28;19931;-48
2022/11/08 04:28:47;;;;;;;;;;;;;;;17.55;67.08;99229.94;2106125;28;19953;-50
2022/11/08 04:29:48;;;;;;;;;;;;;;;17.54;67.06;99222.91;2106395;28;19924;-46
2022/11/08 04:30:52;;;;;;;;;;;;;;;17.55;66.96;99218.38;2107361;28;19958;-48
2022/11/08 04:31:53;;;;;;;;;;;;;;;17.56;67.03;99220.06;2106038;28;19935;-48
2022/11/08 04:32:54;;;;;;;;;;;;;;;17.56;66.98;99228.09;2101143;28;19920;-48
2022/11/08 04:33:55;;;;;;;;;;;;;;;17.55;66.95;99221.03;2102386;28;19927;-49
2022/11/08 04:34:56;;;;;;;;;;;;;;;17.54;67.18;99225.59;2102030;28;19924;-48
2022/11/08 04:36:00;;;;;;;;;;;;;;;17.53;67.17;99221.25;2103838;28;20002;-47
2022/11/08 04:37:02;;;;;;;;;;;;;;;17.54;67.04;99224.75;2105744;28;19934;-47
2022/11/08 04:38:02;;;;;;;;;;;;;;;17.54;67.16;99224.75;2105141;27;19920;-48
2022/11/08 04:39:04;;;;;;;;;;;;;;;17.54;67.14;99228.25;2104593;28;20495;-48
2022/11/08 04:40:05;;;;;;;;;;;;;;;17.53;67.13;99223.09;2104742;28;19931;-48
2022/11/08 04:41:07;;;;;;;;;;;;;;;17.55;67.12;99229.09;2104456;28;19970;-46
2022/11/08 04:42:09;;;;;;;;;;;;;;;17.53;66.96;99223.94;2105027;28;20646;-48
2022/11/08 04:43:11;;;;;;;;;;;;;;;17.53;66.93;99229.28;2101362;28;20468;-47
2022/11/08 04:44:14;;;;;;;;;;;;;;;17.54;67.03;99230.13;2103368;28;20595;-48
2022/11/08 04:45:14;;;;;;;;;;;;;;;17.53;67.13;99220.41;2102764;28;20388;-48
2022/11/08 04:46:17;;;;;;;;;;;;;;;17.53;67.02;99223.94;2106412;28;19919;-46
2022/11/08 04:47:17;;;;;;;;;;;;;;;17.53;66.98;99223.94;2104046;28;19919;-48
2022/11/08 04:48:19;;;;;;;;;;;;;;;17.53;67.07;99223.09;2098893;28;19924;-47
2022/11/08 04:49:19;;;;;;;;;;;;;;;17.53;67.06;99220.41;2105244;28;20838;-49
2022/11/08 04:50:21;;;;;;;;;;;;;;;17.53;66.99;99221.25;2099951;28;19928;-48
2022/11/08 04:51:25;;;;;;;;;;;;;;;17.54;67.12;99225.59;2105531;28;19928;-48
2022/11/08 04:52:26;;;;;;;;;;;;;;;17.53;67.14;99223.09;2105302;28;19968;-48
2022/11/08 04:53:27;;;;;;;;;;;;;;;17.53;66.95;99226.59;2105469;28;19931;-46
2022/11/08 04:54:28;;;;;;;;;;;;;;;17.53;67.10;99229.28;2105700;28;21481;-46
2022/11/08 04:55:29;;;;;;;;;;;;;;;17.52;67.21;99232.13;2104448;28;19924;-47
2022/11/08 04:56:31;;;;;;;;;;;;;;;17.52;66.98;99224.09;2103935;28;20320;-47
2022/11/08 04:57:33;;;;;;;;;;;;;;;17.54;67.13;99233.63;2095389;28;19923;-47
2022/11/08 04:58:35;;;;;;;;;;;;;;;17.51;67.07;99231.31;2104235;28;20010;-49
2022/11/08 04:59:36;;;;;;;;;;;;;;;17.54;67.04;99236.31;2105210;28;19923;-47
2022/11/08 05:00:37;;;;;;;;;;;;;;;17.53;67.03;99228.47;2105053;28;19934;-50
2022/11/08 05:01:38;;;;;;;;;;;;;;;17.53;67.03;99231.97;2105535;27;19935;-46
2022/11/08 05:02:39;;;;;;;;;;;;;;;17.52;67.16;99230.28;2106840;28;20378;-48
2022/11/08 05:03:41;;;;;;;;;;;;;;;17.53;67.10;99221.25;2099298;28;19927;-47
2022/11/08 05:04:42;;;;;;;;;;;;;;;17.53;66.99;99229.28;2102315;28;19924;-47
2022/11/08 05:05:43;;;;;;;;;;;;;;;17.53;66.96;99231.16;2105806;28;19930;-46
2022/11/08 05:06:44;;;;;;;;;;;;;;;17.54;67.04;99225.59;2105988;28;19934;-47
2022/11/08 05:07:45;;;;;;;;;;;;;;;17.52;67.13;99227.59;2105129;28;19927;-47
2022/11/08 05:08:46;;;;;;;;;;;;;;;17.52;66.99;99229.47;2107294;28;19920;-46
2022/11/08 05:09:48;;;;;;;;;;;;;;;17.53;67.06;99226.59;2103574;28;19923;-47
2022/11/08 05:10:48;;;;;;;;;;;;;;;17.51;66.92;99225.94;2107230;28;20031;-49
2022/11/08 05:11:50;;;;;;;;;;;;;;;17.52;67.00;99232.97;2106221;28;19919;-47
2022/11/08 05:12:55;;;;;;;;;;;;;;;17.52;67.14;99235.66;2106875;28;19939;-50
2022/11/08 05:13:57;;;;;;;;;;;;;;;17.52;67.03;99232.97;2106783;28;19924;-47
2022/11/08 05:14:57;;;;;;;;;;;;;;;17.51;67.00;99235.84;2106685;28;19923;-47
2022/11/08 05:16:00;;;;;;;;;;;;;;;17.50;66.95;99229.66;2107053;28;19958;-49
2022/11/08 05:17:00;;;;;;;;;;;;;;;17.51;66.99;99225.94;2108313;28;19928;-47
2022/11/08 05:18:02;;;;;;;;;;;;;;;17.51;67.05;99225.13;2103639;28;20023;-46
2022/11/08 05:19:03;;;;;;;;;;;;;;;17.51;66.99;99225.94;2102634;28;19927;-48
2022/11/08 05:24:02;;;;;;;;;;;;;;;17.51;67.02;99225.13;2104305;28;19923;-50
2022/11/08 05:25:03;;;;;;;;;;;;;;;17.51;67.10;99225.13;2106772;28;19927;-47
2022/11/08 05:26:05;;;;;;;;;;;;;;;17.50;67.13;99224.28;2107030;28;20425;-47
2022/11/08 05:27:05;;;;;;;;;;;;;;;17.51;66.96;99231.31;2106196;28;19932;-48
2022/11/08 05:28:08;;;;;;;;;;;;;;;17.49;67.18;99219.94;2106051;28;19920;-50
2022/11/08 05:29:09;;;;;;;;;;;;;;;17.50;67.16;99226.16;2107660;28;19919;-47
2022/11/08 05:30:12;;;;;;;;;;;;;;;17.50;67.18;99220.78;2103189;28;19923;-49
2022/11/08 05:31:13;;;;;;;;;;;;;;;17.50;67.16;99218.09;2101256;28;19953;-46
2022/11/08 05:32:14;;;;;;;;;;;;;;;17.50;66.89;99218.94;2106560;28;19920;-47
2022/11/08 05:33:15;;;;;;;;;;;;;;;17.51;66.88;99222.44;2104876;28;19920;-49
2022/11/08 05:34:17;;;;;;;;;;;;;;;17.50;66.93;99218.94;2104384;28;19935;-47
2022/11/08 05:35:20;;;;;;;;;;;;;;;17.50;66.89;99224.28;2108336;28;19920;-49
2022/11/08 05:36:22;;;;;;;;;;;;;;;17.50;66.82;99221.63;2104031;28;19920;-48
2022/11/08 05:37:22;;;;;;;;;;;;;;;17.50;66.97;99218.94;2106012;28;19929;-48
2022/11/08 05:38:24;;;;;;;;;;;;;;;17.51;67.06;99222.44;2104648;28;20388;-48
2022/11/08 05:39:24;;;;;;;;;;;;;;;17.49;67.02;99222.59;2106190;28;20296;-48
2022/11/08 05:40:26;;;;;;;;;;;;;;;17.50;66.97;99218.94;2107119;28;19974;-50
2022/11/08 05:41:27;;;;;;;;;;;;;;;17.49;66.91;99222.59;2107675;28;19923;-47
2022/11/08 05:42:28;;;;;;;;;;;;;;;17.50;67.09;99223.47;2107062;28;19934;-50
2022/11/08 05:43:30;;;;;;;;;;;;;;;17.50;67.06;99224.28;2104134;28;19924;-50
2022/11/08 05:44:32;;;;;;;;;;;;;;;17.48;67.13;99215.59;2103963;28;19931;-48